Time;durP1;ratioP1;P1;durP2;ratioP2;P2;SDS_P1;SDS_P2;PMS_P1;PMS_P2;Temp;Humidity;BMP_temperature;BMP_pressure;BME280_temperature;BME280_humidity;BME280_pressure;Samples;Min_cycle;Max_cycle;Signal;HPM_P1;HPM_P2
2023/04/23 00:00:23;;;;;;;30.52;21.42;;;8.20;99.90;;;;;;5037047;28;20021;-85
2023/04/23 00:02:52;;;;;;;28.55;19.40;;;8.30;99.90;;;;;;5035866;28;20036;-86
2023/04/23 00:05:18;;;;;;;31.50;20.70;;;8.30;99.90;;;;;;5067965;28;20096;-85
2023/04/23 00:07:45;;;;;;;27.30;19.48;;;8.30;99.90;;;;;;5066670;28;20119;-85
2023/04/23 00:10:11;;;;;;;30.95;19.92;;;8.20;99.90;;;;;;5052858;28;20027;-84
2023/04/23 00:12:37;;;;;;;27.52;18.42;;;8.20;99.90;;;;;;5032493;28;20116;-83
2023/04/23 00:15:05;;;;;;;27.85;19.13;;;8.20;99.90;;;;;;5066556;28;20035;-84
2023/04/23 00:17:31;;;;;;;27.65;19.10;;;8.20;99.90;;;;;;5049126;28;20036;-84
2023/04/23 00:19:57;;;;;;;28.48;20.42;;;8.20;99.90;;;;;;5034931;28;20032;-84
2023/04/23 00:22:22;;;;;;;29.02;19.13;;;8.20;99.90;;;;;;5032323;28;20035;-85
2023/04/23 00:24:48;;;;;;;28.85;18.75;;;8.10;99.90;;;;;;5034016;28;20028;-85
2023/04/23 00:27:14;;;;;;;31.00;19.83;;;8.10;99.90;;;;;;5051643;28;20124;-85
2023/04/23 00:29:40;;;;;;;29.02;18.83;;;8.10;99.90;;;;;;5049321;28;20025;-85
2023/04/23 00:32:06;;;;;;;32.83;20.90;;;8.00;99.90;;;;;;5052307;28;20024;-85
2023/04/23 00:34:32;;;;;;;30.92;19.73;;;8.10;99.90;;;;;;5050531;28;20032;-85
2023/04/23 00:36:58;;;;;;;31.35;20.67;;;8.00;99.90;;;;;;5035038;28;20036;-85
2023/04/23 00:39:24;;;;;;;31.77;20.90;;;7.90;99.90;;;;;;5031470;28;20154;-85
2023/04/23 00:41:50;;;;;;;28.48;19.42;;;7.90;99.90;;;;;;5037837;28;20485;-86
2023/04/23 00:44:15;;;;;;;31.95;20.13;;;7.90;99.90;;;;;;5052919;28;20025;-86
2023/04/23 00:46:42;;;;;;;28.55;18.92;;;8.00;99.90;;;;;;5035857;28;20017;-86
2023/04/23 00:49:07;;;;;;;31.50;20.25;;;8.00;99.90;;;;;;5069027;28;20085;-86
2023/04/23 00:51:33;;;;;;;32.47;20.30;;;8.00;99.90;;;;;;5052347;28;20135;-86
2023/04/23 00:53:59;;;;;;;33.92;21.40;;;8.00;99.90;;;;;;5033539;28;20168;-86
2023/04/23 00:56:26;;;;;;;33.17;19.77;;;7.90;99.90;;;;;;5051216;28;20035;-85
2023/04/23 00:58:53;;;;;;;32.85;20.67;;;7.90;99.90;;;;;;5051693;28;20147;-86
2023/04/23 01:01:20;;;;;;;34.85;21.83;;;7.90;99.90;;;;;;5053188;28;20021;-85
2023/04/23 01:03:51;;;;;;;32.55;20.90;;;7.90;99.90;;;;;;5053071;28;20032;-85
2023/04/23 01:06:17;;;;;;;33.35;20.20;;;7.80;99.90;;;;;;5056951;28;20032;-85
2023/04/23 01:08:43;;;;;;;33.33;21.35;;;7.80;99.90;;;;;;5066964;28;20032;-86
2023/04/23 01:11:13;;;;;;;34.35;21.48;;;7.80;99.90;;;;;;5033060;28;20480;-86
2023/04/23 01:13:38;;;;;;;36.30;22.10;;;7.80;99.90;;;;;;5032377;28;20036;-85
2023/04/23 01:16:05;;;;;;;34.28;21.58;;;7.80;99.90;;;;;;5034455;28;20332;-85
2023/04/23 01:18:31;;;;;;;34.38;21.52;;;7.80;99.90;;;;;;5049058;28;20036;-86
2023/04/23 01:20:57;;;;;;;36.20;21.77;;;7.60;99.90;;;;;;5035512;28;20519;-86
2023/04/23 01:23:23;;;;;;;35.47;21.45;;;7.60;99.90;;;;;;5034691;28;20067;-86
2023/04/23 01:25:50;;;;;;;34.55;21.75;;;7.50;99.90;;;;;;5031984;28;20031;-85
2023/04/23 01:28:16;;;;;;;33.13;20.75;;;7.50;99.90;;;;;;5050368;28;20028;-85
2023/04/23 01:30:42;;;;;;;36.80;22.60;;;7.60;99.90;;;;;;5032602;28;20085;-86
2023/04/23 01:33:10;;;;;;;33.92;20.17;;;7.50;99.90;;;;;;5034522;28;20098;-86
2023/04/23 01:35:36;;;;;;;34.55;21.00;;;7.50;99.90;;;;;;5049305;28;20036;-86
2023/04/23 01:38:02;;;;;;;34.38;21.08;;;7.50;99.90;;;;;;5050234;28;20029;-86
2023/04/23 01:40:28;;;;;;;33.97;20.45;;;7.40;99.90;;;;;;5033251;28;20029;-85
2023/04/23 01:42:55;;;;;;;33.45;20.77;;;7.50;99.90;;;;;;5035881;28;20035;-85
2023/04/23 01:45:21;;;;;;;34.92;21.20;;;7.40;99.90;;;;;;5050807;28;20037;-85
2023/04/23 01:47:47;;;;;;;35.75;20.50;;;7.50;99.90;;;;;;5033748;28;20044;-84
2023/04/23 01:50:13;;;;;;;34.90;20.63;;;7.60;99.90;;;;;;5034767;28;20032;-85
2023/04/23 01:52:41;;;;;;;34.58;20.10;;;7.70;99.90;;;;;;5052251;28;20052;-83
2023/04/23 01:55:08;;;;;;;37.85;21.75;;;7.80;99.90;;;;;;5034908;28;20443;-85
2023/04/23 01:57:34;;;;;;;35.28;20.67;;;7.80;99.90;;;;;;5048895;28;20047;-85
2023/04/23 02:00:07;;;;;;;35.55;19.85;;;7.90;99.90;;;;;;5034543;28;20024;-86
2023/04/23 02:02:39;;;;;;;32.80;20.73;;;7.90;99.90;;;;;;5051106;28;20025;-84
2023/04/23 02:05:13;;;;;;;35.13;20.38;;;7.90;99.90;;;;;;5048393;28;20025;-85
2023/04/23 02:07:39;;;;;;;36.08;20.40;;;7.90;99.90;;;;;;5032625;28;20035;-85
2023/04/23 02:10:05;;;;;;;32.78;19.30;;;7.90;99.90;;;;;;5030625;28;20388;-86
2023/04/23 02:12:31;;;;;;;33.15;20.05;;;7.80;99.90;;;;;;5030672;28;20069;-86
2023/04/23 02:14:57;;;;;;;31.75;18.40;;;7.80;99.90;;;;;;5064497;28;20020;-85
2023/04/23 02:17:22;;;;;;;31.73;19.27;;;7.80;99.90;;;;;;5030433;28;20021;-86
2023/04/23 02:19:48;;;;;;;31.67;19.35;;;7.80;99.90;;;;;;5031532;28;20116;-86
2023/04/23 02:22:15;;;;;;;32.80;19.05;;;7.80;99.90;;;;;;5035113;28;20560;-85
2023/04/23 02:24:41;;;;;;;31.63;19.70;;;7.80;99.90;;;;;;5065609;28;20028;-85
2023/04/23 02:27:07;;;;;;;28.92;17.88;;;7.80;99.90;;;;;;5030126;28;20070;-84
2023/04/23 02:29:33;;;;;;;30.13;17.70;;;7.80;99.90;;;;;;5034353;28;20032;-84
2023/04/23 02:31:59;;;;;;;30.70;17.55;;;7.80;99.90;;;;;;5049958;28;20465;-86
2023/04/23 02:34:25;;;;;;;28.02;16.85;;;7.80;99.90;;;;;;5029835;28;20036;-86
2023/04/23 02:36:51;;;;;;;29.17;17.25;;;7.80;99.90;;;;;;5047422;28;20201;-85
2023/04/23 02:39:17;;;;;;;31.23;18.90;;;7.80;99.90;;;;;;5034958;28;20040;-86
2023/04/23 02:41:43;;;;;;;29.65;17.25;;;7.80;99.90;;;;;;5045636;28;20029;-86
2023/04/23 02:44:08;;;;;;;28.42;17.92;;;7.90;99.90;;;;;;5034674;28;20024;-86
2023/04/23 02:46:36;;;;;;;28.65;17.67;;;7.90;99.90;;;;;;5029649;28;20020;-84
2023/04/23 02:49:02;;;;;;;29.20;17.65;;;7.90;99.90;;;;;;5032369;28;20030;-86
2023/04/23 02:51:28;;;;;;;28.50;17.58;;;7.90;99.90;;;;;;5029828;28;20025;-86
2023/04/23 02:53:57;;;;;;;31.00;17.60;;;8.00;99.90;;;;;;5031213;28;20056;-86
2023/04/23 02:56:22;;;;;;;28.30;16.00;;;8.00;99.90;;;;;;5033219;28;20896;-87
2023/04/23 02:58:48;;;;;;;28.70;17.23;;;8.00;99.90;;;;;;5064014;28;20079;-85
2023/04/23 03:01:14;;;;;;;29.65;16.80;;;8.00;99.90;;;;;;5036785;28;20031;-87
2023/04/23 03:03:40;;;;;;;32.00;17.95;;;8.10;99.90;;;;;;5053065;28;20032;-85
2023/04/23 03:06:06;;;;;;;28.98;17.42;;;8.00;99.90;;;;;;5073127;28;20098;-84
2023/04/23 03:08:32;;;;;;;26.05;15.70;;;8.00;99.90;;;;;;5067702;28;20078;-86
2023/04/23 03:10:59;;;;;;;22.20;12.95;;;8.00;99.90;;;;;;5036792;28;20082;-85
2023/04/23 03:13:25;;;;;;;25.95;15.88;;;8.00;99.90;;;;;;5038821;28;20040;-85
2023/04/23 03:15:53;;;;;;;23.40;14.20;;;8.00;99.90;;;;;;5037865;28;20025;-85
2023/04/23 03:18:19;;;;;;;25.92;16.80;;;8.00;99.90;;;;;;5036781;28;20567;-86
2023/04/23 03:20:48;;;;;;;28.35;16.80;;;7.90;99.90;;;;;;5037662;28;20048;-84
2023/04/23 03:23:14;;;;;;;28.67;16.98;;;7.90;99.90;;;;;;5055172;28;20060;-84
2023/04/23 03:25:39;;;;;;;28.02;16.67;;;7.90;99.90;;;;;;5034198;28;20135;-84
2023/04/23 03:28:05;;;;;;;29.98;17.90;;;7.90;99.90;;;;;;5038445;28;20035;-85
2023/04/23 03:30:32;;;;;;;30.17;17.35;;;7.90;99.90;;;;;;5034245;28;20025;-85
2023/04/23 03:32:58;;;;;;;28.88;16.98;;;7.90;99.90;;;;;;5031913;28;20045;-84
2023/04/23 03:35:27;;;;;;;28.60;16.63;;;7.80;99.90;;;;;;5033985;28;20120;-85
2023/04/23 03:37:56;;;;;;;28.58;17.52;;;7.80;99.90;;;;;;5035266;28;20060;-84
2023/04/23 03:40:23;;;;;;;31.75;18.08;;;7.70;99.90;;;;;;5052458;28;20033;-85
2023/04/23 03:42:51;;;;;;;28.27;17.10;;;7.70;99.90;;;;;;5052252;28;20117;-84
2023/04/23 03:45:24;;;;;;;30.08;17.65;;;7.70;99.90;;;;;;5054140;28;20039;-85
2023/04/23 03:47:50;;;;;;;27.05;16.83;;;7.70;99.90;;;;;;5050541;28;20089;-85
2023/04/23 03:50:17;;;;;;;28.05;16.92;;;7.60;99.90;;;;;;5035057;28;20039;-84
2023/04/23 03:52:44;;;;;;;29.58;18.00;;;7.70;99.90;;;;;;5031812;28;20037;-84
2023/04/23 03:55:17;;;;;;;25.77;16.77;;;7.60;99.90;;;;;;5033187;28;20029;-86
2023/04/23 03:57:44;;;;;;;26.85;15.77;;;7.70;99.90;;;;;;5052449;28;20036;-85
2023/04/23 04:00:24;;;;;;;26.77;15.95;;;7.70;99.90;;;;;;5047579;28;20052;-86
2023/04/23 04:02:49;;;;;;;29.48;16.77;;;7.70;99.90;;;;;;5033956;28;20059;-84
2023/04/23 04:05:15;;;;;;;27.70;16.92;;;7.70;99.90;;;;;;5051368;28;20031;-85
2023/04/23 04:07:41;;;;;;;28.40;16.23;;;7.70;99.90;;;;;;5032650;28;20029;-85
2023/04/23 04:10:07;;;;;;;26.50;16.88;;;7.70;99.90;;;;;;5037969;28;20024;-84
2023/04/23 04:12:32;;;;;;;26.63;16.73;;;7.70;99.90;;;;;;5049052;28;20044;-85
2023/04/23 04:14:58;;;;;;;28.13;16.27;;;7.60;99.90;;;;;;5066755;28;20190;-84
2023/04/23 04:17:24;;;;;;;25.05;15.52;;;7.70;99.90;;;;;;5037809;28;20021;-85
2023/04/23 04:19:50;;;;;;;28.42;16.13;;;7.70;99.90;;;;;;5038871;28;20033;-83
2023/04/23 04:22:16;;;;;;;24.05;15.18;;;7.70;99.90;;;;;;5069454;28;20609;-85
2023/04/23 04:24:42;;;;;;;27.40;15.98;;;7.80;99.90;;;;;;5031284;28;20040;-84
2023/04/23 04:27:08;;;;;;;25.55;15.20;;;7.80;99.90;;;;;;5049947;28;20025;-84
2023/04/23 04:29:34;;;;;;;25.80;14.90;;;7.80;99.90;;;;;;5050665;28;20033;-83
2023/04/23 04:32:01;;;;;;;23.35;14.80;;;7.90;99.90;;;;;;5035687;28;20051;-84
2023/04/23 04:34:27;;;;;;;22.90;12.75;;;7.90;99.90;;;;;;5053414;28;20572;-85
2023/04/23 04:36:53;;;;;;;20.27;12.55;;;8.00;99.90;;;;;;5035506;28;20025;-84
2023/04/23 04:39:19;;;;;;;23.75;15.30;;;8.00;99.90;;;;;;5036774;28;20382;-85
2023/04/23 04:41:46;;;;;;;21.08;13.20;;;8.00;99.90;;;;;;5033126;28;20603;-84
2023/04/23 04:44:13;;;;;;;23.00;13.90;;;8.00;99.90;;;;;;5049442;28;20029;-85
2023/04/23 04:46:39;;;;;;;21.55;13.68;;;8.10;99.90;;;;;;5052882;28;20485;-85
2023/04/23 04:49:10;;;;;;;20.10;12.23;;;8.00;99.90;;;;;;5050155;28;20025;-85
2023/04/23 04:51:36;;;;;;;20.98;12.85;;;8.10;99.90;;;;;;5032022;28;20549;-85
2023/04/23 04:54:02;;;;;;;19.45;12.70;;;8.10;99.90;;;;;;5065473;28;20040;-86
2023/04/23 04:56:28;;;;;;;18.33;12.20;;;8.10;99.90;;;;;;5050787;28;20120;-86
2023/04/23 04:58:54;;;;;;;22.05;14.15;;;8.20;99.90;;;;;;5036126;28;20033;-85
2023/04/23 05:01:23;;;;;;;19.92;13.30;;;8.20;99.90;;;;;;5035667;28;20023;-86
2023/04/23 05:03:49;;;;;;;20.13;13.05;;;8.30;99.90;;;;;;5033301;28;20025;-86
2023/04/23 05:06:14;;;;;;;22.58;13.68;;;8.30;99.90;;;;;;5035343;28;20031;-84
2023/04/23 05:08:41;;;;;;;19.75;12.82;;;8.40;99.90;;;;;;5049785;28;20110;-84
2023/04/23 05:11:07;;;;;;;20.58;13.27;;;8.50;99.90;;;;;;5050973;28;20165;-85
2023/04/23 05:13:32;;;;;;;21.23;14.13;;;8.50;99.90;;;;;;5031947;28;20556;-86
2023/04/23 05:15:59;;;;;;;19.98;13.88;;;8.50;99.90;;;;;;5051639;28;20024;-84
2023/04/23 05:18:25;;;;;;;19.35;13.90;;;8.50;99.90;;;;;;5032936;28;20032;-84
2023/04/23 05:20:50;;;;;;;17.95;12.20;;;8.50;99.90;;;;;;5063757;28;20554;-84
2023/04/23 05:23:17;;;;;;;20.85;14.73;;;8.60;99.90;;;;;;5035259;28;20028;-84
2023/04/23 05:25:43;;;;;;;21.08;14.45;;;8.60;99.90;;;;;;5032112;28;20035;-83
2023/04/23 05:28:08;;;;;;;21.05;14.10;;;8.60;99.90;;;;;;5031046;28;20020;-85
2023/04/23 05:30:34;;;;;;;18.67;13.38;;;8.60;99.90;;;;;;5031252;28;20032;-83
2023/04/23 05:33:00;;;;;;;19.40;12.93;;;8.70;99.90;;;;;;5030567;28;20119;-85
2023/04/23 05:35:26;;;;;;;18.75;13.18;;;8.70;99.90;;;;;;5051946;28;20129;-84
2023/04/23 05:37:52;;;;;;;18.15;12.95;;;8.70;99.90;;;;;;5050499;28;20115;-85
2023/04/23 05:40:17;;;;;;;14.93;11.07;;;8.70;99.90;;;;;;5047232;28;20024;-84
2023/04/23 05:42:43;;;;;;;19.27;13.05;;;8.70;99.90;;;;;;5044777;28;20457;-84
2023/04/23 05:45:09;;;;;;;16.40;11.52;;;8.80;99.90;;;;;;5063078;28;20401;-84
2023/04/23 05:47:35;;;;;;;16.75;11.57;;;8.80;99.90;;;;;;5034354;28;20056;-84
2023/04/23 05:50:01;;;;;;;17.60;11.45;;;8.80;99.90;;;;;;5035159;28;20166;-83
2023/04/23 05:52:30;;;;;;;16.02;9.88;;;8.90;99.90;;;;;;5031093;28;20400;-84
2023/04/23 05:54:56;;;;;;;15.00;10.23;;;8.90;99.90;;;;;;5031838;28;20028;-83
2023/04/23 05:57:22;;;;;;;14.10;10.10;;;9.00;99.90;;;;;;5033682;28;20063;-84
2023/04/23 05:59:47;;;;;;;17.60;12.23;;;9.10;99.90;;;;;;5032476;28;20475;-84
2023/04/23 06:02:17;;;;;;;16.80;11.93;;;9.10;99.90;;;;;;5034233;28;20362;-84
2023/04/23 06:04:42;;;;;;;13.60;9.90;;;9.20;99.90;;;;;;5037367;28;20374;-85
2023/04/23 06:07:08;;;;;;;14.48;10.75;;;9.10;99.90;;;;;;5036793;28;20036;-84
2023/04/23 06:09:34;;;;;;;13.88;10.18;;;9.10;99.90;;;;;;5032177;28;20028;-84
2023/04/23 06:12:02;;;;;;;12.52;9.60;;;9.10;99.90;;;;;;5029104;28;20035;-84
2023/04/23 06:14:27;;;;;;;12.77;9.38;;;9.10;99.90;;;;;;5028699;28;20502;-84
2023/04/23 06:16:53;;;;;;;13.40;9.23;;;9.30;99.90;;;;;;5032752;28;20166;-86
2023/04/23 06:19:19;;;;;;;12.05;8.85;;;9.40;99.90;;;;;;5031147;28;20116;-87
2023/04/23 06:21:44;;;;;;;11.13;8.02;;;9.50;99.90;;;;;;5043997;28;20081;-84
2023/04/23 06:24:10;;;;;;;11.23;7.85;;;9.70;99.90;;;;;;5029830;28;20031;-87
2023/04/23 06:26:36;;;;;;;12.85;9.68;;;9.90;99.90;;;;;;5049315;28;20544;-84
2023/04/23 06:29:10;;;;;;;12.68;9.35;;;10.00;99.90;;;;;;5047153;28;20025;-84
2023/04/23 06:31:55;;;;;;;12.57;9.02;;;10.10;99.90;;;;;;5033086;28;20070;-85
2023/04/23 06:34:21;;;;;;;10.52;8.50;;;10.40;99.90;;;;;;5030216;28;20036;-83
2023/04/23 06:36:46;;;;;;;9.30;7.03;;;10.60;99.90;;;;;;5032101;28;20036;-83
2023/04/23 06:39:12;;;;;;;9.95;8.18;;;10.70;99.90;;;;;;5028289;28;20532;-83
2023/04/23 06:41:38;;;;;;;11.23;8.82;;;11.00;99.90;;;;;;5063978;28;20023;-85
2023/04/23 06:44:14;;;;;;;14.50;10.75;;;11.20;99.90;;;;;;5047644;28;20025;-84
2023/04/23 06:46:50;;;;;;;8.88;6.80;;;11.30;99.90;;;;;;5031955;28;20024;-86
2023/04/23 06:49:16;;;;;;;9.07;7.68;;;11.60;99.90;;;;;;5028812;28;20028;-83
2023/04/23 06:51:42;;;;;;;8.75;6.97;;;11.80;99.90;;;;;;5061937;28;20481;-83
2023/04/23 06:54:08;;;;;;;10.27;8.02;;;11.90;99.90;;;;;;5026917;28;20037;-83
2023/04/23 06:56:34;;;;;;;7.75;6.95;;;11.90;99.90;;;;;;5027176;28;20086;-85
2023/04/23 06:59:00;;;;;;;9.27;7.75;;;12.10;99.90;;;;;;5045506;28;20037;-83
2023/04/23 07:01:25;;;;;;;10.70;8.55;;;12.20;99.90;;;;;;5062126;28;20092;-83
2023/04/23 07:03:53;;;;;;;13.60;11.35;;;12.30;99.90;;;;;;5050367;28;20120;-84
2023/04/23 07:06:19;;;;;;;9.80;8.80;;;12.30;99.90;;;;;;5047066;28;20074;-83
2023/04/23 07:08:45;;;;;;;10.18;8.82;;;12.60;99.90;;;;;;5029306;28;20127;-84
2023/04/23 07:11:11;;;;;;;7.63;6.63;;;12.60;99.90;;;;;;5029859;28;20120;-84
2023/04/23 07:13:37;;;;;;;10.38;7.10;;;12.80;99.90;;;;;;5029955;28;20035;-85
2023/04/23 07:16:03;;;;;;;9.90;8.45;;;12.70;99.90;;;;;;5038282;28;20293;-83
2023/04/23 07:18:29;;;;;;;9.15;7.88;;;12.80;99.90;;;;;;5046443;28;20033;-83
2023/04/23 07:20:55;;;;;;;8.05;6.97;;;13.10;99.90;;;;;;5030999;28;20115;-84
2023/04/23 07:23:21;;;;;;;6.63;5.93;;;13.30;99.90;;;;;;5047349;28;20029;-84
2023/04/23 07:25:47;;;;;;;6.80;6.18;;;13.40;99.90;;;;;;5048860;28;20127;-82
2023/04/23 07:28:13;;;;;;;6.70;5.97;;;13.50;99.90;;;;;;5030064;28;20063;-82
2023/04/23 07:30:38;;;;;;;7.30;5.70;;;13.50;99.90;;;;;;5028975;28;20116;-83
2023/04/23 07:33:04;;;;;;;7.93;6.68;;;13.80;99.90;;;;;;5045955;28;20037;-85
2023/04/23 07:35:30;;;;;;;7.47;6.32;;;13.80;99.90;;;;;;5030974;28;20169;-85
2023/04/23 07:37:57;;;;;;;7.07;5.97;;;13.80;99.90;;;;;;5063377;28;20116;-83
2023/04/23 07:40:23;;;;;;;7.13;6.43;;;13.90;99.90;;;;;;5029579;28;20025;-84
2023/04/23 07:42:50;;;;;;;7.60;6.22;;;14.00;99.90;;;;;;5062390;28;20024;-85
2023/04/23 07:45:17;;;;;;;6.82;6.13;;;14.00;99.90;;;;;;5049596;28;20043;-83
2023/04/23 07:47:44;;;;;;;7.40;6.70;;;14.30;99.90;;;;;;5050170;28;20029;-82
2023/04/23 07:50:11;;;;;;;8.10;6.60;;;14.30;99.90;;;;;;5069179;28;20050;-85
2023/04/23 07:52:36;;;;;;;6.05;5.25;;;14.20;99.90;;;;;;5068420;28;20036;-83
2023/04/23 07:55:02;;;;;;;7.25;6.25;;;14.30;99.90;;;;;;5052624;28;20021;-83
2023/04/23 07:57:28;;;;;;;5.40;4.68;;;14.40;99.90;;;;;;5035948;28;20049;-84
2023/04/23 07:59:54;;;;;;;6.28;5.13;;;14.70;99.90;;;;;;5035682;28;20036;-85
2023/04/23 08:02:24;;;;;;;4.93;4.38;;;14.80;99.90;;;;;;5052912;28;20108;-84
2023/04/23 08:04:51;;;;;;;7.03;5.63;;;15.10;99.90;;;;;;5034121;28;20535;-81
2023/04/23 08:07:17;;;;;;;5.95;4.60;;;15.10;99.90;;;;;;5035624;28;20029;-84
2023/04/23 08:09:43;;;;;;;6.45;5.00;;;15.40;99.90;;;;;;5052308;28;20074;-84
2023/04/23 08:12:09;;;;;;;5.60;5.10;;;15.40;99.90;;;;;;5066526;28;20028;-81
2023/04/23 08:14:35;;;;;;;5.68;5.07;;;15.40;99.90;;;;;;5048723;28;20044;-79
2023/04/23 08:17:05;;;;;;;5.30;4.80;;;15.40;99.90;;;;;;5047822;28;21920;-83
2023/04/23 08:19:32;;;;;;;5.65;4.15;;;15.40;99.90;;;;;;5066856;28;20481;-82
2023/04/23 08:21:58;;;;;;;6.07;4.22;;;15.40;99.90;;;;;;5051184;28;20025;-81
2023/04/23 08:24:25;;;;;;;6.38;4.57;;;15.60;99.90;;;;;;5065482;28;20074;-82
2023/04/23 08:26:51;;;;;;;5.65;4.18;;;15.70;99.90;;;;;;5067230;28;20756;-81
2023/04/23 08:29:16;;;;;;;3.90;3.33;;;15.50;99.90;;;;;;5033725;28;20036;-81
2023/04/23 08:31:42;;;;;;;3.78;2.70;;;15.90;99.90;;;;;;5034301;28;20160;-81
2023/04/23 08:34:08;;;;;;;4.47;2.60;;;16.00;99.90;;;;;;5033251;28;20499;-81
2023/04/23 08:36:35;;;;;;;4.25;2.45;;;16.00;99.90;;;;;;5034993;28;20025;-81
2023/04/23 08:39:02;;;;;;;5.88;3.95;;;16.20;99.90;;;;;;5051040;28;20044;-81
2023/04/23 08:41:39;;;;;;;3.72;2.75;;;15.90;99.90;;;;;;5066931;28;20021;-82
2023/04/23 08:44:18;;;;;;;4.38;3.97;;;16.20;99.90;;;;;;5049283;28;20121;-81
2023/04/23 08:46:44;;;;;;;2.85;2.38;;;15.90;99.90;;;;;;5036621;28;20477;-80
2023/04/23 08:49:16;;;;;;;3.70;2.90;;;16.50;99.90;;;;;;5033661;28;20028;-81
2023/04/23 08:51:48;;;;;;;2.85;2.63;;;16.70;99.90;;;;;;5065844;28;20033;-82
2023/04/23 08:54:18;;;;;;;6.40;2.80;;;16.40;99.90;;;;;;5033660;28;20537;-81
2023/04/23 08:56:44;;;;;;;4.60;2.10;;;16.50;99.90;;;;;;5043184;28;20035;-81
2023/04/23 08:59:10;;;;;;;4.25;2.10;;;16.70;99.90;;;;;;5049535;28;20037;-83
2023/04/23 09:01:36;;;;;;;4.45;2.90;;;16.90;99.90;;;;;;5045829;28;20035;-84
2023/04/23 09:04:02;;;;;;;3.42;1.33;;;16.90;99.90;;;;;;5043280;28;20032;-81
2023/04/23 09:06:31;;;;;;;2.63;1.30;;;17.00;99.90;;;;;;5027650;28;20119;-83
2023/04/23 09:08:58;;;;;;;3.45;1.35;;;17.50;99.90;;;;;;5037853;28;20028;-80
2023/04/23 09:11:27;;;;;;;2.50;1.00;;;17.30;99.90;;;;;;5048761;28;20095;-81
2023/04/23 09:13:55;;;;;;;2.67;1.27;;;17.40;99.90;;;;;;5053721;28;20044;-84
2023/04/23 09:16:21;;;;;;;3.72;1.67;;;17.20;99.90;;;;;;5049249;28;20040;-83
2023/04/23 09:18:48;;;;;;;4.38;2.00;;;17.10;99.90;;;;;;5066727;28;20032;-82
2023/04/23 09:21:14;;;;;;;4.05;1.67;;;17.40;99.90;;;;;;5034966;28;20550;-87
2023/04/23 09:23:41;;;;;;;2.63;0.98;;;17.70;99.90;;;;;;5051355;28;20050;-82
2023/04/23 09:26:07;;;;;;;3.35;1.30;;;17.90;99.90;;;;;;5036454;28;20021;-82
2023/04/23 09:28:35;;;;;;;4.90;1.17;;;17.60;99.90;;;;;;5053044;28;20044;-83
2023/04/23 09:31:01;;;;;;;2.88;0.80;;;17.60;99.90;;;;;;5068032;28;20115;-87
2023/04/23 09:33:27;;;;;;;2.42;0.77;;;17.50;99.90;;;;;;5033029;28;20123;-83
2023/04/23 09:35:53;;;;;;;2.05;0.60;;;17.60;99.90;;;;;;5047600;28;20020;-82
2023/04/23 09:38:19;;;;;;;2.33;0.70;;;17.80;99.90;;;;;;5031728;28;20471;-83
2023/04/23 09:40:45;;;;;;;2.80;0.50;;;17.70;99.90;;;;;;5048949;28;20465;-83
2023/04/23 09:43:10;;;;;;;5.20;0.80;;;18.00;99.90;;;;;;5046417;28;20043;-83
2023/04/23 09:45:36;;;;;;;3.42;0.80;;;18.10;99.90;;;;;;5049478;28;20107;-82
2023/04/23 09:48:02;;;;;;;2.83;0.50;;;17.80;99.90;;;;;;5045834;28;20039;-80
2023/04/23 09:50:35;;;;;;;2.05;0.85;;;18.30;99.90;;;;;;5030882;28;20021;-79
2023/04/23 09:53:02;;;;;;;3.30;0.52;;;18.30;99.90;;;;;;5065815;28;20044;-79
2023/04/23 09:55:37;;;;;;;4.80;0.68;;;18.00;99.90;;;;;;5042589;28;20067;-79
2023/04/23 09:58:18;;;;;;;2.65;0.77;;;18.00;99.90;;;;;;5046912;28;20123;-83
2023/04/23 10:00:44;;;;;;;3.40;0.50;;;18.60;99.90;;;;;;5029726;28;20093;-81
2023/04/23 10:03:10;;;;;;;2.38;0.40;;;18.70;99.90;;;;;;5024463;28;20477;-80
2023/04/23 10:05:42;;;;;;;1.77;0.40;;;18.80;99.90;;;;;;5033374;28;20107;-78
2023/04/23 10:08:08;;;;;;;3.45;0.30;;;18.90;99.90;;;;;;5030050;28;20025;-82
2023/04/23 10:10:35;;;;;;;4.28;0.40;;;18.80;99.90;;;;;;5029927;28;20070;-80
2023/04/23 10:13:01;;;;;;;2.53;0.50;;;18.40;99.90;;;;;;5030195;28;20032;-80
2023/04/23 10:15:27;;;;;;;3.53;0.52;;;18.40;99.90;;;;;;5030162;28;20107;-85
2023/04/23 10:17:54;;;;;;;1.70;0.50;;;18.60;99.90;;;;;;5037737;28;20035;-84
2023/04/23 10:20:21;;;;;;;2.35;0.40;;;18.30;99.90;;;;;;5040550;28;20028;-81
2023/04/23 10:22:47;;;;;;;1.98;0.30;;;17.80;99.90;;;;;;5045732;28;20040;-79
2023/04/23 10:25:14;;;;;;;1.77;0.40;;;17.50;99.90;;;;;;5029515;28;20106;-82
2023/04/23 10:27:47;;;;;;;3.50;0.38;;;17.70;99.90;;;;;;5032846;28;20025;-85
2023/04/23 10:30:13;;;;;;;1.98;0.30;;;17.40;99.90;;;;;;5048905;28;20031;-82
2023/04/23 10:32:40;;;;;;;4.20;0.60;;;17.30;99.90;;;;;;5028483;28;20388;-80
2023/04/23 10:35:07;;;;;;;2.38;0.40;;;17.60;99.90;;;;;;5032447;28;20032;-85
2023/04/23 10:37:34;;;;;;;6.18;0.40;;;17.70;99.90;;;;;;5058667;28;20025;-79
2023/04/23 10:40:28;;;;;;;1.67;0.20;;;18.10;99.90;;;;;;5046114;28;20033;-79
2023/04/23 10:42:54;;;;;;;1.85;0.30;;;18.40;99.90;;;;;;5046037;28;20032;-79
2023/04/23 10:45:20;;;;;;;3.97;0.40;;;18.80;99.90;;;;;;5030888;28;20028;-80
2023/04/23 10:47:46;;;;;;;2.33;0.22;;;18.80;99.90;;;;;;5028655;28;20129;-80
2023/04/23 10:50:29;;;;;;;1.75;0.30;;;18.70;99.90;;;;;;5048828;28;20082;-81
2023/04/23 10:52:56;;;;;;;2.67;0.30;;;18.50;99.90;;;;;;5036831;28;20039;-79
2023/04/23 10:55:27;;;;;;;2.95;0.40;;;18.40;99.90;;;;;;5038337;28;20151;-83
2023/04/23 10:58:07;;;;;;;0.98;0.20;;;18.20;99.90;;;;;;5046553;28;20081;-81
2023/04/23 11:00:42;;;;;;;0.73;0.20;;;18.10;99.90;;;;;;5029191;28;20031;-83
2023/04/23 11:03:41;;;;;;;2.15;0.20;;;18.20;99.90;;;;;;5074570;28;20021;-81
2023/04/23 11:06:07;;;;;;;1.38;0.20;;;18.30;99.90;;;;;;5060748;28;20028;-81
2023/04/23 11:08:37;;;;;;;2.65;0.20;;;18.10;99.90;;;;;;5051483;28;20028;-80
2023/04/23 11:11:07;;;;;;;1.63;0.22;;;18.10;99.90;;;;;;5055052;28;20502;-83
2023/04/23 11:13:33;;;;;;;1.30;0.20;;;17.80;99.90;;;;;;5044959;28;20089;-81
2023/04/23 11:16:13;;;;;;;2.17;0.30;;;17.80;99.90;;;;;;5052670;28;20158;-80
2023/04/23 11:19:11;;;;;;;4.10;0.20;;;18.20;99.90;;;;;;5049371;28;20529;-81
2023/04/23 11:22:01;;;;;;;1.45;0.20;;;18.10;99.90;;;;;;5049579;28;20024;-81
2023/04/23 11:24:41;;;;;;;1.02;0.20;;;18.20;99.90;;;;;;5048913;28;20111;-81
2023/04/23 11:27:14;;;;;;;;;;;17.90;99.90;;;;;;5042443;28;20114;-80
2023/04/23 11:29:41;;;;;;;2.20;0.20;;;17.70;99.90;;;;;;5045695;28;19943;-81
2023/04/23 11:32:12;;;;;;;1.92;0.30;;;17.80;99.90;;;;;;5047518;28;20017;-80
2023/04/23 11:34:43;;;;;;;1.75;0.22;;;17.70;99.90;;;;;;5034982;28;20436;-80
2023/04/23 11:37:14;;;;;;;3.15;0.30;;;17.70;99.90;;;;;;5052349;28;20028;-81
2023/04/23 11:39:41;;;;;;;2.50;0.20;;;17.70;99.90;;;;;;5050498;28;20571;-79
2023/04/23 11:42:14;;;;;;;2.13;0.20;;;17.70;99.90;;;;;;5047839;28;20021;-80
2023/04/23 11:44:41;;;;;;;2.83;0.22;;;17.70;99.90;;;;;;5065404;28;20059;-85
2023/04/23 11:47:12;;;;;;;2.40;0.20;;;17.60;99.90;;;;;;5066300;28;20375;-81
2023/04/23 11:49:42;;;;;;;1.60;0.20;;;17.90;99.90;;;;;;5052539;28;20025;-81
2023/04/23 11:52:09;;;;;;;1.05;0.20;;;18.30;99.90;;;;;;5048061;28;20393;-80
2023/04/23 11:54:35;;;;;;;2.10;0.20;;;18.70;99.90;;;;;;5035325;28;20036;-82
2023/04/23 11:57:03;;;;;;;1.00;0.20;;;18.80;99.90;;;;;;5058503;28;20119;-81
2023/04/23 11:59:29;;;;;;;1.27;0.15;;;18.80;99.90;;;;;;5065261;28;20077;-87
2023/04/23 12:01:57;;;;;;;1.10;0.20;;;18.90;99.90;;;;;;5066760;28;20101;-87
2023/04/23 12:04:24;;;;;;;1.90;0.20;;;19.00;99.90;;;;;;5042433;28;20094;-82
2023/04/23 12:06:51;;;;;;;1.05;0.20;;;18.90;99.90;;;;;;5032848;28;20021;-80
2023/04/23 12:09:20;;;;;;;1.27;0.20;;;18.80;99.90;;;;;;5029727;28;20488;-83
2023/04/23 12:11:46;;;;;;;2.38;0.20;;;19.20;99.90;;;;;;5039432;28;20074;-82
2023/04/23 12:14:13;;;;;;;2.08;0.15;;;19.30;99.90;;;;;;5058034;28;20052;-81
2023/04/23 12:16:40;;;;;;;1.30;0.20;;;19.30;99.90;;;;;;5049568;28;20024;-85
2023/04/23 12:19:08;;;;;;;1.98;0.20;;;18.80;99.90;;;;;;5053043;28;20124;-84
2023/04/23 12:21:33;;;;;;;2.30;0.20;;;18.70;99.90;;;;;;5050594;28;20392;-80
2023/04/23 12:24:03;;;;;;;1.65;0.20;;;18.80;99.90;;;;;;5034008;28;20036;-80
2023/04/23 12:26:30;;;;;;;1.85;0.20;;;18.80;99.90;;;;;;5049342;28;20020;-85
2023/04/23 12:28:58;;;;;;;2.17;0.30;;;18.90;99.90;;;;;;5051970;28;20029;-82
2023/04/23 12:31:28;;;;;;;2.33;0.20;;;18.60;99.90;;;;;;5048542;28;20085;-81
2023/04/23 12:34:05;;;;;;;1.73;0.38;;;18.80;99.90;;;;;;5047415;28;20044;-82
2023/04/23 12:36:32;;;;;;;1.50;0.28;;;19.00;99.90;;;;;;5029833;28;20032;-81
2023/04/23 12:39:22;;;;;;;1.27;0.15;;;19.30;99.90;;;;;;5050188;28;20036;-81
2023/04/23 12:41:51;;;;;;;0.40;0.10;;;19.20;99.90;;;;;;5067251;28;20427;-83
2023/04/23 12:44:16;;;;;;;1.17;0.10;;;19.60;99.90;;;;;;5034533;28;20032;-83